sensor_id;sensor_type;location;lat;lon;timestamp;temperature;humidity
33865;DHT22;20159;51.072;13.526;2023-05-20T00:01:54;14.80;81.40
33865;DHT22;20159;51.072;13.526;2023-05-20T00:04:20;14.80;81.40
33865;DHT22;20159;51.072;13.526;2023-05-20T00:06:45;14.80;81.40
33865;DHT22;20159;51.072;13.526;2023-05-20T00:09:11;14.80;81.50
33865;DHT22;20159;51.072;13.526;2023-05-20T00:11:36;14.80;81.70
33865;DHT22;20159;51.072;13.526;2023-05-20T00:14:02;14.70;81.70
33865;DHT22;20159;51.072;13.526;2023-05-20T00:16:27;14.70;81.90
33865;DHT22;20159;51.072;13.526;2023-05-20T00:18:52;14.70;82.00
33865;DHT22;20159;51.072;13.526;2023-05-20T00:21:18;14.60;82.10
33865;DHT22;20159;51.072;13.526;2023-05-20T00:23:43;14.60;82.30
33865;DHT22;20159;51.072;13.526;2023-05-20T00:26:09;14.60;82.50
33865;DHT22;20159;51.072;13.526;2023-05-20T00:28:35;14.60;82.60
33865;DHT22;20159;51.072;13.526;2023-05-20T00:31:00;14.60;82.80
33865;DHT22;20159;51.072;13.526;2023-05-20T00:33:26;14.60;82.90
33865;DHT22;20159;51.072;13.526;2023-05-20T00:39:33;14.50;83.60
33865;DHT22;20159;51.072;13.526;2023-05-20T00:41:59;14.50;82.80
33865;DHT22;20159;51.072;13.526;2023-05-20T00:47:17;14.60;83.30
33865;DHT22;20159;51.072;13.526;2023-05-20T00:53:08;14.50;83.70
33865;DHT22;20159;51.072;13.526;2023-05-20T00:55:54;14.50;83.20
33865;DHT22;20159;51.072;13.526;2023-05-20T00:58:23;14.50;83.00
33865;DHT22;20159;51.072;13.526;2023-05-20T01:04:03;14.40;84.10
33865;DHT22;20159;51.072;13.526;2023-05-20T01:07:17;14.40;83.40
33865;DHT22;20159;51.072;13.526;2023-05-20T01:09:20;14.40;83.50
33865;DHT22;20159;51.072;13.526;2023-05-20T01:12:03;14.30;83.50
33865;DHT22;20159;51.072;13.526;2023-05-20T01:14:38;14.30;84.40
33865;DHT22;20159;51.072;13.526;2023-05-20T01:17:37;14.20;84.00
33865;DHT22;20159;51.072;13.526;2023-05-20T01:20:30;14.20;85.10
33865;DHT22;20159;51.072;13.526;2023-05-20T01:22:56;14.10;84.50
33865;DHT22;20159;51.072;13.526;2023-05-20T01:25:34;14.10;84.50
33865;DHT22;20159;51.072;13.526;2023-05-20T01:34:12;14.00;84.80
33865;DHT22;20159;51.072;13.526;2023-05-20T01:36:38;14.00;84.80
33865;DHT22;20159;51.072;13.526;2023-05-20T01:39:24;13.90;84.80
33865;DHT22;20159;51.072;13.526;2023-05-20T01:41:53;13.90;85.80
33865;DHT22;20159;51.072;13.526;2023-05-20T01:44:22;13.90;85.40
33865;DHT22;20159;51.072;13.526;2023-05-20T01:46:49;13.80;85.40
33865;DHT22;20159;51.072;13.526;2023-05-20T01:49:26;13.80;85.80
33865;DHT22;20159;51.072;13.526;2023-05-20T01:51:52;13.80;86.60
33865;DHT22;20159;51.072;13.526;2023-05-20T01:54:23;13.70;86.00
33865;DHT22;20159;51.072;13.526;2023-05-20T02:03:24;13.70;87.20
33865;DHT22;20159;51.072;13.526;2023-05-20T02:05:59;13.60;86.50
33865;DHT22;20159;51.072;13.526;2023-05-20T02:15:11;13.50;86.70
33865;DHT22;20159;51.072;13.526;2023-05-20T02:17:55;13.50;87.70
33865;DHT22;20159;51.072;13.526;2023-05-20T02:20:31;13.50;87.10
33865;DHT22;20159;51.072;13.526;2023-05-20T02:23:02;13.50;87.10
33865;DHT22;20159;51.072;13.526;2023-05-20T02:29:17;13.40;88.20
33865;DHT22;20159;51.072;13.526;2023-05-20T02:32:05;13.40;87.30
33865;DHT22;20159;51.072;13.526;2023-05-20T02:34:44;13.30;88.50
33865;DHT22;20159;51.072;13.526;2023-05-20T02:37:23;13.30;88.60
33865;DHT22;20159;51.072;13.526;2023-05-20T02:39:48;13.30;88.00
33865;DHT22;20159;51.072;13.526;2023-05-20T02:42:25;13.30;88.20
33865;DHT22;20159;51.072;13.526;2023-05-20T02:44:52;13.20;88.30
33865;DHT22;20159;51.072;13.526;2023-05-20T02:47:26;13.20;88.60
33865;DHT22;20159;51.072;13.526;2023-05-20T02:49:52;13.10;89.50
33865;DHT22;20159;51.072;13.526;2023-05-20T02:52:37;13.10;89.20
33865;DHT22;20159;51.072;13.526;2023-05-20T03:04:35;13.10;89.70
33865;DHT22;20159;51.072;13.526;2023-05-20T03:07:07;13.10;89.90
33865;DHT22;20159;51.072;13.526;2023-05-20T03:09:56;13.10;89.90
33865;DHT22;20159;51.072;13.526;2023-05-20T03:12:24;13.10;90.10
33865;DHT22;20159;51.072;13.526;2023-05-20T03:14:52;13.10;90.10
33865;DHT22;20159;51.072;13.526;2023-05-20T03:17:39;13.20;90.20
33865;DHT22;20159;51.072;13.526;2023-05-20T03:20:26;13.20;90.70
33865;DHT22;20159;51.072;13.526;2023-05-20T03:22:55;13.20;90.30
33865;DHT22;20159;51.072;13.526;2023-05-20T03:25:22;13.20;90.30
33865;DHT22;20159;51.072;13.526;2023-05-20T03:27:51;13.30;90.40
33865;DHT22;20159;51.072;13.526;2023-05-20T03:30:35;13.30;90.50
33865;DHT22;20159;51.072;13.526;2023-05-20T03:33:01;13.40;90.40
33865;DHT22;20159;51.072;13.526;2023-05-20T03:38:58;13.40;90.70
33865;DHT22;20159;51.072;13.526;2023-05-20T03:41:24;13.50;90.20
33865;DHT22;20159;51.072;13.526;2023-05-20T03:46:57;13.60;90.30
33865;DHT22;20159;51.072;13.526;2023-05-20T03:49:26;13.60;90.10
33865;DHT22;20159;51.072;13.526;2023-05-20T03:52:21;13.60;90.10
33865;DHT22;20159;51.072;13.526;2023-05-20T03:55:01;13.70;90.30
33865;DHT22;20159;51.072;13.526;2023-05-20T03:57:29;13.70;90.00
33865;DHT22;20159;51.072;13.526;2023-05-20T03:59:59;13.70;89.90
33865;DHT22;20159;51.072;13.526;2023-05-20T04:02:26;13.80;90.00
33865;DHT22;20159;51.072;13.526;2023-05-20T04:05:15;13.80;90.00
33865;DHT22;20159;51.072;13.526;2023-05-20T04:07:46;13.80;89.80
33865;DHT22;20159;51.072;13.526;2023-05-20T04:10:12;13.80;89.40
33865;DHT22;20159;51.072;13.526;2023-05-20T04:12:45;13.90;90.00
33865;DHT22;20159;51.072;13.526;2023-05-20T04:15:14;13.90;90.10
33865;DHT22;20159;51.072;13.526;2023-05-20T04:17:59;13.90;90.00
33865;DHT22;20159;51.072;13.526;2023-05-20T04:20:30;14.00;89.90
33865;DHT22;20159;51.072;13.526;2023-05-20T04:22:55;14.00;89.80
33865;DHT22;20159;51.072;13.526;2023-05-20T04:25:24;14.00;89.90
33865;DHT22;20159;51.072;13.526;2023-05-20T04:27:55;14.00;89.80
33865;DHT22;20159;51.072;13.526;2023-05-20T04:30:22;14.00;89.90
33865;DHT22;20159;51.072;13.526;2023-05-20T04:33:09;14.10;89.90
33865;DHT22;20159;51.072;13.526;2023-05-20T04:36:16;14.00;90.10
33865;DHT22;20159;51.072;13.526;2023-05-20T04:39:13;12.50;89.60
33865;DHT22;20159;51.072;13.526;2023-05-20T04:41:40;14.20;90.10
33865;DHT22;20159;51.072;13.526;2023-05-20T04:47:36;14.20;90.00
33865;DHT22;20159;51.072;13.526;2023-05-20T04:50:07;14.30;89.50
33865;DHT22;20159;51.072;13.526;2023-05-20T04:53:01;14.30;89.70
33865;DHT22;20159;51.072;13.526;2023-05-20T04:55:38;14.30;90.00
33865;DHT22;20159;51.072;13.526;2023-05-20T04:58:09;14.40;89.40
33865;DHT22;20159;51.072;13.526;2023-05-20T05:03:53;14.50;89.20
33865;DHT22;20159;51.072;13.526;2023-05-20T05:06:28;14.60;89.00
33865;DHT22;20159;51.072;13.526;2023-05-20T05:08:56;14.60;88.80
33865;DHT22;20159;51.072;13.526;2023-05-20T05:11:22;14.70;88.80
33865;DHT22;20159;51.072;13.526;2023-05-20T05:13:51;14.70;88.80
33865;DHT22;20159;51.072;13.526;2023-05-20T05:16:37;14.70;88.80
33865;DHT22;20159;51.072;13.526;2023-05-20T05:19:03;14.80;88.90
33865;DHT22;20159;51.072;13.526;2023-05-20T05:21:49;14.80;88.50
33865;DHT22;20159;51.072;13.526;2023-05-20T05:24:15;17.90;90.10
33865;DHT22;20159;51.072;13.526;2023-05-20T05:26:44;14.90;88.30
33865;DHT22;20159;51.072;13.526;2023-05-20T05:29:15;15.00;88.20
33865;DHT22;20159;51.072;13.526;2023-05-20T05:31:44;15.00;88.10
33865;DHT22;20159;51.072;13.526;2023-05-20T05:34:09;15.10;88.00
33865;DHT22;20159;51.072;13.526;2023-05-20T05:36:37;15.10;87.90
33865;DHT22;20159;51.072;13.526;2023-05-20T05:39:05;15.20;87.80
33865;DHT22;20159;51.072;13.526;2023-05-20T05:41:36;15.20;87.80
33865;DHT22;20159;51.072;13.526;2023-05-20T05:44:05;15.20;88.00
33865;DHT22;20159;51.072;13.526;2023-05-20T05:46:31;15.30;87.90
33865;DHT22;20159;51.072;13.526;2023-05-20T05:48:59;15.30;87.90
33865;DHT22;20159;51.072;13.526;2023-05-20T05:51:26;15.40;87.70
33865;DHT22;20159;51.072;13.526;2023-05-20T05:53:52;15.40;87.50
33865;DHT22;20159;51.072;13.526;2023-05-20T05:56:18;15.50;87.40
33865;DHT22;20159;51.072;13.526;2023-05-20T05:58:44;15.50;87.20
33865;DHT22;20159;51.072;13.526;2023-05-20T06:01:10;15.60;87.20
33865;DHT22;20159;51.072;13.526;2023-05-20T06:03:35;15.60;86.80
33865;DHT22;20159;51.072;13.526;2023-05-20T06:06:01;15.60;86.70
33865;DHT22;20159;51.072;13.526;2023-05-20T06:08:26;15.70;86.80
33865;DHT22;20159;51.072;13.526;2023-05-20T06:10:52;15.80;86.90
33865;DHT22;20159;51.072;13.526;2023-05-20T06:13:19;15.80;86.70
33865;DHT22;20159;51.072;13.526;2023-05-20T06:15:44;15.90;86.50
33865;DHT22;20159;51.072;13.526;2023-05-20T06:18:11;15.90;86.20
33865;DHT22;20159;51.072;13.526;2023-05-20T06:20:37;16.00;86.00
33865;DHT22;20159;51.072;13.526;2023-05-20T06:23:02;16.00;85.70
33865;DHT22;20159;51.072;13.526;2023-05-20T06:25:28;16.00;85.60
33865;DHT22;20159;51.072;13.526;2023-05-20T06:27:53;16.10;85.60
33865;DHT22;20159;51.072;13.526;2023-05-20T06:30:19;16.10;85.50
33865;DHT22;20159;51.072;13.526;2023-05-20T06:32:45;16.20;85.40
33865;DHT22;20159;51.072;13.526;2023-05-20T06:35:11;16.20;85.50
33865;DHT22;20159;51.072;13.526;2023-05-20T06:37:36;16.20;85.50
33865;DHT22;20159;51.072;13.526;2023-05-20T06:40:02;16.30;85.70
33865;DHT22;20159;51.072;13.526;2023-05-20T06:42:28;16.40;85.40
33865;DHT22;20159;51.072;13.526;2023-05-20T06:44:53;16.40;85.20
33865;DHT22;20159;51.072;13.526;2023-05-20T06:47:19;16.50;85.10
33865;DHT22;20159;51.072;13.526;2023-05-20T06:49:44;16.60;85.10
33865;DHT22;20159;51.072;13.526;2023-05-20T06:52:10;16.60;85.10
33865;DHT22;20159;51.072;13.526;2023-05-20T06:54:37;17.50;85.20
33865;DHT22;20159;51.072;13.526;2023-05-20T06:57:06;16.80;84.40
33865;DHT22;20159;51.072;13.526;2023-05-20T06:59:32;16.90;84.20
33865;DHT22;20159;51.072;13.526;2023-05-20T07:01:58;16.90;84.10
33865;DHT22;20159;51.072;13.526;2023-05-20T07:04:23;17.00;83.90
33865;DHT22;20159;51.072;13.526;2023-05-20T07:06:49;17.10;83.80
33865;DHT22;20159;51.072;13.526;2023-05-20T07:09:14;17.20;83.70
33865;DHT22;20159;51.072;13.526;2023-05-20T07:11:40;17.30;83.30
33865;DHT22;20159;51.072;13.526;2023-05-20T07:14:06;17.30;82.80
33865;DHT22;20159;51.072;13.526;2023-05-20T07:16:32;17.40;82.80
33865;DHT22;20159;51.072;13.526;2023-05-20T07:18:59;17.50;82.40
33865;DHT22;20159;51.072;13.526;2023-05-20T07:21:27;17.60;82.30
33865;DHT22;20159;51.072;13.526;2023-05-20T07:23:53;17.70;82.00
33865;DHT22;20159;51.072;13.526;2023-05-20T07:26:18;17.80;81.80
33865;DHT22;20159;51.072;13.526;2023-05-20T07:28:44;17.90;81.50
33865;DHT22;20159;51.072;13.526;2023-05-20T07:31:11;17.90;81.20
33865;DHT22;20159;51.072;13.526;2023-05-20T07:33:37;18.00;81.20
33865;DHT22;20159;51.072;13.526;2023-05-20T07:36:03;18.10;80.70
33865;DHT22;20159;51.072;13.526;2023-05-20T07:38:29;18.10;80.60
33865;DHT22;20159;51.072;13.526;2023-05-20T07:40:56;18.20;80.30
33865;DHT22;20159;51.072;13.526;2023-05-20T07:43:22;18.20;80.10
33865;DHT22;20159;51.072;13.526;2023-05-20T07:45:50;18.30;79.80
33865;DHT22;20159;51.072;13.526;2023-05-20T07:48:15;18.30;79.80
33865;DHT22;20159;51.072;13.526;2023-05-20T07:50:41;18.30;79.60
33865;DHT22;20159;51.072;13.526;2023-05-20T07:53:07;18.40;79.50
33865;DHT22;20159;51.072;13.526;2023-05-20T07:55:33;18.40;79.60
33865;DHT22;20159;51.072;13.526;2023-05-20T07:58:00;18.40;79.60
33865;DHT22;20159;51.072;13.526;2023-05-20T08:00:26;18.50;79.60
33865;DHT22;20159;51.072;13.526;2023-05-20T08:02:56;18.60;79.60
33865;DHT22;20159;51.072;13.526;2023-05-20T08:05:22;18.60;79.30
33865;DHT22;20159;51.072;13.526;2023-05-20T08:07:48;18.80;79.40
33865;DHT22;20159;51.072;13.526;2023-05-20T08:10:23;18.80;79.10
33865;DHT22;20159;51.072;13.526;2023-05-20T08:13:11;19.00;78.70
33865;DHT22;20159;51.072;13.526;2023-05-20T08:15:40;19.10;79.00
33865;DHT22;20159;51.072;13.526;2023-05-20T08:18:14;19.20;78.30
33865;DHT22;20159;51.072;13.526;2023-05-20T08:20:40;19.40;78.20
33865;DHT22;20159;51.072;13.526;2023-05-20T08:23:43;19.50;77.60
33865;DHT22;20159;51.072;13.526;2023-05-20T08:28:51;19.80;77.40
33865;DHT22;20159;51.072;13.526;2023-05-20T08:31:24;19.90;77.00
33865;DHT22;20159;51.072;13.526;2023-05-20T08:33:49;20.00;76.50
33865;DHT22;20159;51.072;13.526;2023-05-20T08:36:18;20.10;75.90
33865;DHT22;20159;51.072;13.526;2023-05-20T08:38:43;20.20;75.70
33865;DHT22;20159;51.072;13.526;2023-05-20T08:41:09;20.30;76.10
33865;DHT22;20159;51.072;13.526;2023-05-20T08:43:36;20.60;76.70
33865;DHT22;20159;51.072;13.526;2023-05-20T08:46:02;20.90;76.70
33865;DHT22;20159;51.072;13.526;2023-05-20T08:48:30;21.30;76.40
33865;DHT22;20159;51.072;13.526;2023-05-20T08:50:58;21.70;76.40
33865;DHT22;20159;51.072;13.526;2023-05-20T08:53:25;22.20;75.40
33865;DHT22;20159;51.072;13.526;2023-05-20T08:55:55;22.70;74.50
33865;DHT22;20159;51.072;13.526;2023-05-20T08:58:22;23.10;72.80
33865;DHT22;20159;51.072;13.526;2023-05-20T09:00:49;23.40;71.50
33865;DHT22;20159;51.072;13.526;2023-05-20T09:03:15;23.60;70.40
33865;DHT22;20159;51.072;13.526;2023-05-20T09:05:41;23.80;69.40
33865;DHT22;20159;51.072;13.526;2023-05-20T09:08:08;23.90;69.00
33865;DHT22;20159;51.072;13.526;2023-05-20T09:10:34;24.00;68.00
33865;DHT22;20159;51.072;13.526;2023-05-20T09:13:01;24.10;67.50
33865;DHT22;20159;51.072;13.526;2023-05-20T09:15:31;24.20;67.00
33865;DHT22;20159;51.072;13.526;2023-05-20T09:18:05;24.20;66.60
33865;DHT22;20159;51.072;13.526;2023-05-20T09:20:33;24.30;66.10
33865;DHT22;20159;51.072;13.526;2023-05-20T09:23:04;24.40;66.10
33865;DHT22;20159;51.072;13.526;2023-05-20T09:25:29;24.40;66.40
33865;DHT22;20159;51.072;13.526;2023-05-20T09:27:55;24.60;66.30
33865;DHT22;20159;51.072;13.526;2023-05-20T09:30:24;24.70;65.70
33865;DHT22;20159;51.072;13.526;2023-05-20T09:35:20;24.80;64.30
33865;DHT22;20159;51.072;13.526;2023-05-20T09:37:47;24.80;63.60
33865;DHT22;20159;51.072;13.526;2023-05-20T09:40:14;24.70;63.40
33865;DHT22;20159;51.072;13.526;2023-05-20T09:45:17;24.60;63.10
33865;DHT22;20159;51.072;13.526;2023-05-20T09:47:43;24.70;64.10
33865;DHT22;20159;51.072;13.526;2023-05-20T09:50:10;24.70;64.80
33865;DHT22;20159;51.072;13.526;2023-05-20T09:52:38;24.80;64.20
33865;DHT22;20159;51.072;13.526;2023-05-20T09:55:08;25.00;63.60
33865;DHT22;20159;51.072;13.526;2023-05-20T09:57:35;25.10;62.90
33865;DHT22;20159;51.072;13.526;2023-05-20T10:00:05;25.10;62.80
33865;DHT22;20159;51.072;13.526;2023-05-20T10:02:33;25.20;62.80
33865;DHT22;20159;51.072;13.526;2023-05-20T10:05:03;25.20;62.60
33865;DHT22;20159;51.072;13.526;2023-05-20T10:18:38;25.60;63.20
33865;DHT22;20159;51.072;13.526;2023-05-20T10:21:19;25.70;63.00
33865;DHT22;20159;51.072;13.526;2023-05-20T10:23:46;25.80;61.50
33865;DHT22;20159;51.072;13.526;2023-05-20T10:26:12;25.90;62.10
33865;DHT22;20159;51.072;13.526;2023-05-20T10:28:40;26.10;61.20
33865;DHT22;20159;51.072;13.526;2023-05-20T10:31:21;26.20;60.90
33865;DHT22;20159;51.072;13.526;2023-05-20T10:33:47;26.40;61.10
33865;DHT22;20159;51.072;13.526;2023-05-20T10:36:25;26.40;60.40
33865;DHT22;20159;51.072;13.526;2023-05-20T10:38:55;26.60;60.00
33865;DHT22;20159;51.072;13.526;2023-05-20T10:41:24;26.60;59.30
33865;DHT22;20159;51.072;13.526;2023-05-20T10:44:03;26.70;58.40
33865;DHT22;20159;51.072;13.526;2023-05-20T10:46:30;26.70;57.90
33865;DHT22;20159;51.072;13.526;2023-05-20T10:48:55;26.70;58.70
33865;DHT22;20159;51.072;13.526;2023-05-20T10:51:22;26.70;58.80
33865;DHT22;20159;51.072;13.526;2023-05-20T10:53:52;26.70;58.30
33865;DHT22;20159;51.072;13.526;2023-05-20T10:56:19;26.80;57.60
33865;DHT22;20159;51.072;13.526;2023-05-20T10:58:48;26.80;58.70
33865;DHT22;20159;51.072;13.526;2023-05-20T11:01:15;26.90;58.40
33865;DHT22;20159;51.072;13.526;2023-05-20T11:03:42;26.90;58.10
33865;DHT22;20159;51.072;13.526;2023-05-20T11:06:13;25.30;55.80
33865;DHT22;20159;51.072;13.526;2023-05-20T11:08:38;27.00;56.90
33865;DHT22;20159;51.072;13.526;2023-05-20T11:11:04;27.10;57.40
33865;DHT22;20159;51.072;13.526;2023-05-20T11:13:30;27.10;57.20
33865;DHT22;20159;51.072;13.526;2023-05-20T11:15:56;27.10;56.80
33865;DHT22;20159;51.072;13.526;2023-05-20T11:18:26;27.00;56.50
33865;DHT22;20159;51.072;13.526;2023-05-20T11:20:55;27.00;56.30
33865;DHT22;20159;51.072;13.526;2023-05-20T11:23:20;27.00;56.30
33865;DHT22;20159;51.072;13.526;2023-05-20T11:25:49;26.90;56.70
33865;DHT22;20159;51.072;13.526;2023-05-20T11:28:15;26.80;56.80
33865;DHT22;20159;51.072;13.526;2023-05-20T11:30:43;26.80;57.10
33865;DHT22;20159;51.072;13.526;2023-05-20T11:33:11;26.70;57.50
33865;DHT22;20159;51.072;13.526;2023-05-20T11:35:46;26.80;57.10
33865;DHT22;20159;51.072;13.526;2023-05-20T11:38:12;26.80;57.00
33865;DHT22;20159;51.072;13.526;2023-05-20T11:40:46;26.80;57.60
33865;DHT22;20159;51.072;13.526;2023-05-20T11:43:13;26.90;56.80
33865;DHT22;20159;51.072;13.526;2023-05-20T11:45:43;27.00;57.20
33865;DHT22;20159;51.072;13.526;2023-05-20T11:48:10;27.20;56.80
33865;DHT22;20159;51.072;13.526;2023-05-20T11:50:38;27.30;56.70
33865;DHT22;20159;51.072;13.526;2023-05-20T11:53:07;27.40;56.90
33865;DHT22;20159;51.072;13.526;2023-05-20T11:55:33;27.50;56.10
33865;DHT22;20159;51.072;13.526;2023-05-20T11:58:00;27.60;55.70
33865;DHT22;20159;51.072;13.526;2023-05-20T12:00:26;27.70;55.40
33865;DHT22;20159;51.072;13.526;2023-05-20T12:02:52;27.70;55.40
33865;DHT22;20159;51.072;13.526;2023-05-20T12:05:18;27.80;55.00
33865;DHT22;20159;51.072;13.526;2023-05-20T12:07:44;27.80;55.70
33865;DHT22;20159;51.072;13.526;2023-05-20T12:10:10;27.80;55.60
33865;DHT22;20159;51.072;13.526;2023-05-20T12:12:38;27.90;55.60
33865;DHT22;20159;51.072;13.526;2023-05-20T12:15:04;27.90;55.90
33865;DHT22;20159;51.072;13.526;2023-05-20T12:17:42;28.00;55.70
33865;DHT22;20159;51.072;13.526;2023-05-20T12:20:08;28.10;55.50
33865;DHT22;20159;51.072;13.526;2023-05-20T12:22:34;28.30;55.80
33865;DHT22;20159;51.072;13.526;2023-05-20T12:25:03;28.40;55.40
33865;DHT22;20159;51.072;13.526;2023-05-20T12:27:31;28.60;55.70
33865;DHT22;20159;51.072;13.526;2023-05-20T12:29:58;28.70;54.70
33865;DHT22;20159;51.072;13.526;2023-05-20T12:32:26;28.90;54.50
33865;DHT22;20159;51.072;13.526;2023-05-20T12:37:28;29.00;54.10
33865;DHT22;20159;51.072;13.526;2023-05-20T12:39:54;29.10;54.00
33865;DHT22;20159;51.072;13.526;2023-05-20T12:42:19;29.20;54.10
33865;DHT22;20159;51.072;13.526;2023-05-20T12:44:45;29.30;54.00
33865;DHT22;20159;51.072;13.526;2023-05-20T12:47:10;29.40;53.40
33865;DHT22;20159;51.072;13.526;2023-05-20T12:49:36;29.60;53.10
33865;DHT22;20159;51.072;13.526;2023-05-20T12:52:01;29.70;53.10
33865;DHT22;20159;51.072;13.526;2023-05-20T12:54:27;29.80;53.20
33865;DHT22;20159;51.072;13.526;2023-05-20T12:56:53;29.90;52.90
33865;DHT22;20159;51.072;13.526;2023-05-20T12:59:19;30.00;52.50
33865;DHT22;20159;51.072;13.526;2023-05-20T13:01:44;30.10;52.40
33865;DHT22;20159;51.072;13.526;2023-05-20T13:04:10;30.10;51.90
33865;DHT22;20159;51.072;13.526;2023-05-20T13:06:35;30.30;51.80
33865;DHT22;20159;51.072;13.526;2023-05-20T13:09:01;30.40;51.60
33865;DHT22;20159;51.072;13.526;2023-05-20T13:11:27;30.40;51.20
33865;DHT22;20159;51.072;13.526;2023-05-20T13:13:55;30.40;51.00
33865;DHT22;20159;51.072;13.526;2023-05-20T13:16:24;30.40;50.80
33865;DHT22;20159;51.072;13.526;2023-05-20T13:18:50;30.50;50.60
33865;DHT22;20159;51.072;13.526;2023-05-20T13:21:16;30.50;50.60
33865;DHT22;20159;51.072;13.526;2023-05-20T13:23:41;30.50;50.80
33865;DHT22;20159;51.072;13.526;2023-05-20T13:26:07;30.40;50.70
33865;DHT22;20159;51.072;13.526;2023-05-20T13:28:33;30.50;50.70
33865;DHT22;20159;51.072;13.526;2023-05-20T13:31:01;30.50;50.30
33865;DHT22;20159;51.072;13.526;2023-05-20T13:33:27;30.50;50.50
33865;DHT22;20159;51.072;13.526;2023-05-20T13:35:52;30.60;50.60
33865;DHT22;20159;51.072;13.526;2023-05-20T13:38:18;30.60;50.20
33865;DHT22;20159;51.072;13.526;2023-05-20T13:40:43;30.70;50.00
33865;DHT22;20159;51.072;13.526;2023-05-20T13:43:09;30.80;49.80
33865;DHT22;20159;51.072;13.526;2023-05-20T13:45:34;30.80;49.40
33865;DHT22;20159;51.072;13.526;2023-05-20T13:48:00;30.80;49.40
33865;DHT22;20159;51.072;13.526;2023-05-20T13:50:25;30.90;49.00
33865;DHT22;20159;51.072;13.526;2023-05-20T13:52:51;30.80;49.20
33865;DHT22;20159;51.072;13.526;2023-05-20T13:55:16;30.90;48.80
33865;DHT22;20159;51.072;13.526;2023-05-20T13:57:42;30.80;48.70
33865;DHT22;20159;51.072;13.526;2023-05-20T14:00:08;30.80;48.80
33865;DHT22;20159;51.072;13.526;2023-05-20T14:02:34;30.70;48.50
33865;DHT22;20159;51.072;13.526;2023-05-20T14:05:00;30.60;48.40
33865;DHT22;20159;51.072;13.526;2023-05-20T14:07:26;30.50;48.60
33865;DHT22;20159;51.072;13.526;2023-05-20T14:09:52;30.30;48.80
33865;DHT22;20159;51.072;13.526;2023-05-20T14:12:17;30.10;48.60
33865;DHT22;20159;51.072;13.526;2023-05-20T14:14:43;30.00;48.70
33865;DHT22;20159;51.072;13.526;2023-05-20T14:17:09;29.70;48.60
33865;DHT22;20159;51.072;13.526;2023-05-20T14:19:34;29.50;48.90
33865;DHT22;20159;51.072;13.526;2023-05-20T14:22:00;29.20;49.30
33865;DHT22;20159;51.072;13.526;2023-05-20T14:24:26;28.90;49.70
33865;DHT22;20159;51.072;13.526;2023-05-20T14:26:52;28.70;50.40
33865;DHT22;20159;51.072;13.526;2023-05-20T14:29:18;28.50;50.80
33865;DHT22;20159;51.072;13.526;2023-05-20T14:31:43;28.30;51.00
33865;DHT22;20159;51.072;13.526;2023-05-20T14:34:09;28.20;51.10
33865;DHT22;20159;51.072;13.526;2023-05-20T14:36:34;28.10;51.20
33865;DHT22;20159;51.072;13.526;2023-05-20T14:39:00;28.00;51.40
33865;DHT22;20159;51.072;13.526;2023-05-20T14:41:26;27.90;51.60
33865;DHT22;20159;51.072;13.526;2023-05-20T14:43:51;27.70;51.70
33865;DHT22;20159;51.072;13.526;2023-05-20T14:46:17;27.50;52.00
33865;DHT22;20159;51.072;13.526;2023-05-20T14:48:42;27.40;52.10
33865;DHT22;20159;51.072;13.526;2023-05-20T14:51:08;27.30;52.50
33865;DHT22;20159;51.072;13.526;2023-05-20T14:53:33;27.20;52.90
33865;DHT22;20159;51.072;13.526;2023-05-20T14:55:59;27.10;53.40
33865;DHT22;20159;51.072;13.526;2023-05-20T14:58:24;27.20;53.50
33865;DHT22;20159;51.072;13.526;2023-05-20T15:00:52;27.30;53.30
33865;DHT22;20159;51.072;13.526;2023-05-20T15:03:17;27.40;53.00
33865;DHT22;20159;51.072;13.526;2023-05-20T15:05:43;27.60;52.80
33865;DHT22;20159;51.072;13.526;2023-05-20T15:08:08;27.60;52.60
33865;DHT22;20159;51.072;13.526;2023-05-20T15:10:34;27.50;52.30
33865;DHT22;20159;51.072;13.526;2023-05-20T15:13:00;27.40;52.20
33865;DHT22;20159;51.072;13.526;2023-05-20T15:15:25;27.30;52.30
33865;DHT22;20159;51.072;13.526;2023-05-20T15:17:51;27.10;52.50
33865;DHT22;20159;51.072;13.526;2023-05-20T15:20:16;27.00;52.60
33865;DHT22;20159;51.072;13.526;2023-05-20T15:22:42;26.90;52.90
33865;DHT22;20159;51.072;13.526;2023-05-20T15:25:12;26.80;53.10
33865;DHT22;20159;51.072;13.526;2023-05-20T15:27:38;26.70;53.40
33865;DHT22;20159;51.072;13.526;2023-05-20T15:30:04;26.60;53.80
33865;DHT22;20159;51.072;13.526;2023-05-20T15:32:30;26.50;54.20
33865;DHT22;20159;51.072;13.526;2023-05-20T15:34:55;26.50;54.50
33865;DHT22;20159;51.072;13.526;2023-05-20T15:37:21;26.50;54.20
33865;DHT22;20159;51.072;13.526;2023-05-20T15:39:46;26.50;54.20
33865;DHT22;20159;51.072;13.526;2023-05-20T15:42:12;26.50;54.20
33865;DHT22;20159;51.072;13.526;2023-05-20T15:44:38;26.60;54.10
33865;DHT22;20159;51.072;13.526;2023-05-20T15:47:03;26.60;54.10
33865;DHT22;20159;51.072;13.526;2023-05-20T15:49:30;26.70;54.10
33865;DHT22;20159;51.072;13.526;2023-05-20T15:51:55;26.70;54.10
33865;DHT22;20159;51.072;13.526;2023-05-20T15:54:21;26.70;54.00
33865;DHT22;20159;51.072;13.526;2023-05-20T15:56:47;26.70;54.00
33865;DHT22;20159;51.072;13.526;2023-05-20T15:59:12;26.60;54.00
33865;DHT22;20159;51.072;13.526;2023-05-20T16:01:38;26.60;53.90
33865;DHT22;20159;51.072;13.526;2023-05-20T16:04:03;26.50;54.10
33865;DHT22;20159;51.072;13.526;2023-05-20T16:06:29;26.40;54.30
33865;DHT22;20159;51.072;13.526;2023-05-20T16:08:54;26.30;54.40
33865;DHT22;20159;51.072;13.526;2023-05-20T16:11:20;26.10;54.50
33865;DHT22;20159;51.072;13.526;2023-05-20T16:13:45;26.00;55.10
33865;DHT22;20159;51.072;13.526;2023-05-20T16:16:11;25.90;55.30
33865;DHT22;20159;51.072;13.526;2023-05-20T16:18:37;25.70;56.30
33865;DHT22;20159;51.072;13.526;2023-05-20T16:21:03;25.60;56.10
33865;DHT22;20159;51.072;13.526;2023-05-20T16:23:31;25.50;56.50
33865;DHT22;20159;51.072;13.526;2023-05-20T16:25:57;25.40;56.80
33865;DHT22;20159;51.072;13.526;2023-05-20T16:28:23;25.40;57.00
33865;DHT22;20159;51.072;13.526;2023-05-20T16:30:49;25.30;56.90
33865;DHT22;20159;51.072;13.526;2023-05-20T16:33:15;25.40;56.70
33865;DHT22;20159;51.072;13.526;2023-05-20T16:35:41;25.40;56.40
33865;DHT22;20159;51.072;13.526;2023-05-20T16:38:07;25.40;56.50
33865;DHT22;20159;51.072;13.526;2023-05-20T16:40:33;25.40;56.70
33865;DHT22;20159;51.072;13.526;2023-05-20T16:42:58;25.30;57.00
33865;DHT22;20159;51.072;13.526;2023-05-20T16:45:24;25.40;57.30